createdAt,value
2023-03-13T00:00:16.218Z,100156.78
2023-03-13T00:04:38.210Z,100148.88
2023-03-13T00:08:40.472Z,100149.56
2023-03-13T00:12:42.393Z,100152.16
2023-03-13T00:16:44.693Z,100146.88
2023-03-13T00:20:48.796Z,100146.03
2023-03-13T00:24:51.299Z,100140.06
2023-03-13T00:28:53.798Z,100136.47
2023-03-13T00:32:55.906Z,100127.00
2023-03-13T00:36:58.037Z,100136.47
2023-03-13T00:41:14.595Z,100138.25
2023-03-13T00:45:16.214Z,100144.25
2023-03-13T00:49:18.177Z,100132.91
2023-03-13T00:53:21.061Z,100135.53
2023-03-13T00:57:23.054Z,100139.16
2023-03-13T01:01:28.025Z,100139.03
2023-03-13T01:05:30.041Z,100136.44
2023-03-13T01:09:34.588Z,100125.38
2023-03-13T01:13:36.939Z,100114.69
2023-03-13T01:17:38.585Z,100111.28
2023-03-13T01:21:43.156Z,100095.63
2023-03-13T01:25:45.148Z,100093.81
2023-03-13T01:29:47.572Z,100090.16
2023-03-13T01:33:54.677Z,100090.19
2023-03-13T01:37:56.737Z,100086.56
2023-03-13T01:41:58.817Z,100083.19
2023-03-13T01:46:05.719Z,100079.69
2023-03-13T01:50:23.060Z,100064.22
2023-03-13T01:54:36.171Z,100054.97
2023-03-13T01:58:38.577Z,100055.69
2023-03-13T02:02:46.794Z,100062.53
2023-03-13T02:06:53.187Z,100058.09
2023-03-13T02:11:14.368Z,100063.19
2023-03-13T02:15:17.756Z,100057.06
2023-03-13T02:19:42.819Z,100057.78
2023-03-13T02:24:21.675Z,100050.88
2023-03-13T02:28:33.671Z,100043.78
2023-03-13T02:32:37.586Z,100049.31
2023-03-13T02:36:40.472Z,100055.03
2023-03-13T02:40:46.726Z,100047.38
2023-03-13T02:44:50.995Z,100040.84
2023-03-13T02:48:55.794Z,100045.94
2023-03-13T02:53:03.744Z,100055.53
2023-03-13T02:57:07.226Z,100045.69
2023-03-13T03:01:09.492Z,100046.63
2023-03-13T03:05:14.705Z,100046.63
2023-03-13T03:09:18.222Z,100048.28
2023-03-13T03:13:20.230Z,100041.22
2023-03-13T03:17:22.477Z,100045.59
2023-03-13T03:21:24.449Z,100047.06
2023-03-13T03:25:27.221Z,100027.97
2023-03-13T03:29:29.025Z,100032.38
2023-03-13T03:33:32.356Z,100042.63
2023-03-13T03:37:34.972Z,100034.22
2023-03-13T03:41:38.535Z,100035.66
2023-03-13T03:45:41.679Z,100028.03
2023-03-13T03:49:44.283Z,100039.88
2023-03-13T03:53:48.192Z,100036.16
2023-03-13T03:57:50.705Z,100030.53
2023-03-13T04:02:03.771Z,100017.81
2023-03-13T04:06:07.422Z,100006.81
2023-03-13T04:10:10.183Z,100007.84
2023-03-13T04:14:18.251Z,99997.28
2023-03-13T04:18:21.169Z,100000.59
2023-03-13T04:22:23.373Z,99999.53
2023-03-13T04:26:30.594Z,99999.97
2023-03-13T04:30:34.454Z,100000.59
2023-03-13T04:34:54.468Z,99981.97
2023-03-13T04:39:11.329Z,99966.38
2023-03-13T04:43:32.329Z,99955.72
2023-03-13T04:48:06.421Z,99950.84
2023-03-13T04:52:31.028Z,99950.00
2023-03-13T04:56:45.422Z,99954.75
2023-03-13T05:01:06.036Z,99932.28
2023-03-13T05:05:28.495Z,99915.59
2023-03-13T05:09:33.473Z,99905.56
2023-03-13T05:13:53.008Z,99894.34
2023-03-13T05:18:12.879Z,99888.75
2023-03-13T05:22:24.137Z,99888.69
2023-03-13T05:26:44.496Z,99898.06
2023-03-13T05:31:15.609Z,99897.38
2023-03-13T05:35:32.073Z,99889.22
2023-03-13T05:39:57.362Z,99883.88
2023-03-13T05:44:18.129Z,99876.09
2023-03-13T05:48:38.459Z,99874.72
2023-03-13T05:52:52.230Z,99879.13
2023-03-13T05:57:23.709Z,99884.63
2023-03-13T06:01:43.485Z,99871.13
2023-03-13T06:06:08.451Z,99858.88
2023-03-13T06:10:15.722Z,99850.69
2023-03-13T06:14:17.877Z,99851.59
2023-03-13T06:18:38.505Z,99836.38
2023-03-13T06:22:41.008Z,99840.91
2023-03-13T06:26:43.775Z,99833.03
2023-03-13T06:30:45.923Z,99804.72
2023-03-13T06:34:48.557Z,99819.28
2023-03-13T06:38:51.207Z,99815.56
2023-03-13T06:42:53.933Z,99805.66
2023-03-13T06:46:55.891Z,99808.59
2023-03-13T06:50:57.936Z,99802.94
2023-03-13T06:55:01.012Z,99806.59
2023-03-13T06:59:03.354Z,99796.06
2023-03-13T07:03:05.563Z,99794.00
2023-03-13T07:07:07.644Z,99790.78
2023-03-13T07:11:11.942Z,99794.16
2023-03-13T07:15:14.048Z,99786.78
2023-03-13T07:19:16.402Z,99778.00
2023-03-13T07:23:18.407Z,99781.88
2023-03-13T07:27:21.290Z,99784.47
2023-03-13T07:31:26.647Z,99790.03
2023-03-13T07:35:28.630Z,99783.00
2023-03-13T07:39:30.606Z,99778.03
2023-03-13T07:43:32.947Z,99774.91
2023-03-13T07:47:35.714Z,99772.06
2023-03-13T07:51:43.978Z,99773.31
2023-03-13T07:56:00.071Z,99778.38
2023-03-13T08:00:02.120Z,99779.41
2023-03-13T08:04:14.524Z,99785.13
2023-03-13T08:08:16.642Z,99785.09
2023-03-13T08:12:18.616Z,99788.59
2023-03-13T08:16:28.871Z,99794.84
2023-03-13T08:20:30.922Z,99786.88
2023-03-13T08:24:32.854Z,99789.63
2023-03-13T08:28:36.331Z,99787.50
2023-03-13T08:32:38.215Z,99802.78
2023-03-13T08:36:41.339Z,99803.56
2023-03-13T08:40:43.332Z,99802.56
2023-03-13T08:44:45.378Z,99806.78
2023-03-13T08:48:55.064Z,99802.78
2023-03-13T08:52:57.225Z,99791.19
2023-03-13T08:57:00.024Z,99792.34
2023-03-13T09:01:03.983Z,99783.16
2023-03-13T09:05:06.570Z,99780.34
2023-03-13T09:09:10.358Z,99768.19
2023-03-13T09:13:13.341Z,99775.38
2023-03-13T09:17:15.081Z,99768.94
2023-03-13T09:21:22.342Z,99764.97
2023-03-13T09:25:24.429Z,99763.34
2023-03-13T09:29:26.438Z,99751.13
2023-03-13T09:33:28.406Z,99750.06
2023-03-13T09:37:30.426Z,99750.09
2023-03-13T09:41:40.468Z,99743.75
2023-03-13T09:45:46.971Z,99736.56
2023-03-13T09:50:03.162Z,99731.53
2023-03-13T09:54:19.624Z,99730.81
2023-03-13T09:58:24.574Z,99725.84
2023-03-13T10:02:47.602Z,99717.16
2023-03-13T10:06:49.710Z,99715.56
2023-03-13T10:11:02.056Z,99703.81
2023-03-13T10:15:10.753Z,99702.38
2023-03-13T10:19:16.703Z,99699.22
2023-03-13T10:23:43.587Z,99697.38
2023-03-13T10:27:51.000Z,99696.91
2023-03-13T10:32:01.534Z,99696.66
2023-03-13T10:36:09.816Z,99695.06
2023-03-13T10:40:25.303Z,99686.59
2023-03-13T10:44:33.302Z,99686.28
2023-03-13T10:48:37.406Z,99673.94
2023-03-13T10:52:45.820Z,99671.47
2023-03-13T10:56:48.209Z,99656.81
2023-03-13T11:00:50.349Z,99647.50
2023-03-13T11:04:54.960Z,99646.38
2023-03-13T11:09:04.520Z,99622.06
2023-03-13T11:13:06.579Z,99630.97
2023-03-13T11:17:24.555Z,99623.69
2023-03-13T11:22:11.993Z,99616.94
2023-03-13T11:26:27.326Z,99614.13
2023-03-13T11:30:47.853Z,99600.75
2023-03-13T11:34:57.388Z,99589.03
2023-03-13T11:39:23.642Z,99577.66
2023-03-13T11:43:55.271Z,99561.00
2023-03-13T11:48:18.422Z,99562.28
2023-03-13T11:52:52.619Z,99539.38
2023-03-13T11:57:03.189Z,99538.13
2023-03-13T12:01:11.454Z,99530.34
2023-03-13T12:05:18.073Z,99524.97
2023-03-13T12:09:33.138Z,99531.19
2023-03-13T12:13:41.740Z,99522.06
2023-03-13T12:17:50.664Z,99527.66
2023-03-13T12:21:57.212Z,99518.19
2023-03-13T12:26:10.836Z,99517.31
2023-03-13T12:30:39.061Z,99503.84
2023-03-13T12:34:53.053Z,99513.81
2023-03-13T12:39:01.021Z,99497.47
2023-03-13T12:43:10.562Z,99503.63
2023-03-13T12:47:21.447Z,99486.53
2023-03-13T12:51:29.758Z,99479.63
2023-03-13T12:55:52.630Z,99490.41
2023-03-13T13:00:00.102Z,99474.47
2023-03-13T13:04:07.904Z,99466.88
2023-03-13T13:08:24.741Z,99460.69
2023-03-13T13:12:27.280Z,99455.88
2023-03-13T13:16:31.196Z,99443.34
2023-03-13T13:20:34.903Z,99441.69
2023-03-13T13:24:48.778Z,99425.69
2023-03-13T13:28:51.008Z,99400.59
2023-03-13T13:33:16.806Z,99381.75
2023-03-13T13:37:21.852Z,99362.84
2023-03-13T13:41:33.124Z,99347.09
2023-03-13T13:45:39.190Z,99326.81
2023-03-13T13:49:54.673Z,99314.22
2023-03-13T13:54:04.168Z,99301.47
2023-03-13T13:58:12.841Z,99274.16
2023-03-13T14:02:17.767Z,99270.91
2023-03-13T14:06:24.643Z,99271.59
2023-03-13T14:10:36.061Z,99262.16
2023-03-13T14:14:38.264Z,99238.66
2023-03-13T14:18:41.902Z,99246.06
2023-03-13T14:22:49.122Z,99247.00
2023-03-13T14:26:51.198Z,99252.13
2023-03-13T14:30:56.677Z,99232.59
2023-03-13T14:34:58.832Z,99235.69
2023-03-13T14:39:01.194Z,99226.38
2023-03-13T14:43:04.517Z,99223.38
2023-03-13T14:47:09.344Z,99213.19
2023-03-13T14:51:20.762Z,99182.06
2023-03-13T14:55:22.687Z,99174.53
2023-03-13T14:59:28.325Z,99172.16
2023-03-13T15:03:32.757Z,99159.63
2023-03-13T15:07:40.638Z,99161.19
2023-03-13T15:11:54.865Z,99162.72
2023-03-13T15:15:57.203Z,99160.44
2023-03-13T15:19:59.631Z,99167.56
2023-03-13T15:24:10.144Z,99176.34
2023-03-13T15:28:18.004Z,99173.63
2023-03-13T15:32:27.615Z,99169.94
2023-03-13T15:36:31.492Z,99167.53
2023-03-13T15:40:33.703Z,99172.56
2023-03-13T15:44:35.702Z,99172.50
2023-03-13T15:48:38.208Z,99176.56
2023-03-13T15:52:40.592Z,99172.03
2023-03-13T15:56:42.789Z,99176.66
2023-03-13T16:00:45.816Z,99168.84
2023-03-13T16:04:48.465Z,99175.13
2023-03-13T16:08:50.449Z,99170.41
2023-03-13T16:12:53.192Z,99160.63
2023-03-13T16:16:55.284Z,99146.22
2023-03-13T16:20:57.379Z,99146.94
2023-03-13T16:24:59.285Z,99147.63
2023-03-13T16:29:01.678Z,99144.44
2023-03-13T16:33:03.862Z,99143.25
2023-03-13T16:37:14.209Z,99149.09
2023-03-13T16:41:21.983Z,99143.72
2023-03-13T16:45:24.362Z,99147.19
2023-03-13T16:49:26.433Z,99150.63
2023-03-13T16:53:28.533Z,99142.75
2023-03-13T16:57:30.562Z,99140.41
2023-03-13T17:01:33.594Z,99140.41
2023-03-13T17:05:35.791Z,99145.41
2023-03-13T17:09:37.946Z,99146.84
2023-03-13T17:13:39.905Z,99151.72
2023-03-13T17:17:44.249Z,99151.50
2023-03-13T17:21:47.037Z,99155.69
2023-03-13T17:25:49.031Z,99155.56
2023-03-13T17:29:51.012Z,99170.44
2023-03-13T17:33:53.219Z,99168.78
2023-03-13T17:37:55.176Z,99176.44
2023-03-13T17:41:57.995Z,99199.69
2023-03-13T17:45:59.964Z,99200.06
2023-03-13T17:50:01.955Z,99212.44
2023-03-13T17:54:04.873Z,99209.34
2023-03-13T17:58:06.975Z,99210.56
2023-03-13T18:02:11.694Z,99226.28
2023-03-13T18:06:22.064Z,99224.63
2023-03-13T18:10:26.675Z,99223.78
2023-03-13T18:14:28.654Z,99227.84
2023-03-13T18:18:31.045Z,99233.44
2023-03-13T18:22:32.984Z,99222.00
2023-03-13T18:26:37.774Z,99222.47
2023-03-13T18:30:39.973Z,99233.94
2023-03-13T18:34:42.593Z,99239.44
2023-03-13T18:38:48.902Z,99233.00
2023-03-13T18:42:51.866Z,99226.53
2023-03-13T18:46:53.899Z,99237.78
2023-03-13T18:50:55.598Z,99244.47
2023-03-13T18:54:57.519Z,99241.34
2023-03-13T18:59:00.367Z,99241.09
2023-03-13T19:03:02.439Z,99232.03
2023-03-13T19:07:11.810Z,99232.16
2023-03-13T19:11:14.803Z,99235.63
2023-03-13T19:15:17.611Z,99228.91
2023-03-13T19:19:21.817Z,99226.78
2023-03-13T19:23:23.763Z,99214.34
2023-03-13T19:27:25.943Z,99218.19
2023-03-13T19:31:28.060Z,99214.13
2023-03-13T19:35:30.231Z,99205.19
2023-03-13T19:39:32.272Z,99217.34
2023-03-13T19:43:34.331Z,99229.50
2023-03-13T19:47:36.569Z,99233.81
2023-03-13T19:51:39.080Z,99238.72
2023-03-13T19:55:41.059Z,99240.66
2023-03-13T19:59:43.112Z,99236.69
2023-03-13T20:03:46.369Z,99252.91
2023-03-13T20:07:48.796Z,99240.63
2023-03-13T20:11:51.049Z,99236.78
2023-03-13T20:15:53.204Z,99222.13
2023-03-13T20:19:55.305Z,99229.75
2023-03-13T20:23:58.728Z,99237.25
2023-03-13T20:28:00.679Z,99243.31
2023-03-13T20:32:04.659Z,99235.41
2023-03-13T20:36:10.584Z,99229.47
2023-03-13T20:40:13.044Z,99238.44
2023-03-13T20:44:15.191Z,99229.13
2023-03-13T20:48:17.680Z,99228.28
2023-03-13T20:52:19.664Z,99219.66
2023-03-13T20:56:22.223Z,99209.91
2023-03-13T21:00:24.646Z,99200.38
2023-03-13T21:04:26.753Z,99204.53
2023-03-13T21:08:28.731Z,99201.81
2023-03-13T21:12:30.669Z,99191.25
2023-03-13T21:16:32.743Z,99187.06
2023-03-13T21:20:34.836Z,99180.50
2023-03-13T21:24:36.907Z,99182.50
2023-03-13T21:28:40.019Z,99185.56
2023-03-13T21:32:42.253Z,99180.66
2023-03-13T21:36:44.236Z,99187.47
2023-03-13T21:40:46.230Z,99183.50
2023-03-13T21:44:48.362Z,99188.25
2023-03-13T21:48:50.336Z,99184.81
2023-03-13T21:52:52.574Z,99167.13
2023-03-13T21:56:54.650Z,99157.16
2023-03-13T22:00:57.654Z,99161.91
2023-03-13T22:04:59.690Z,99150.59
2023-03-13T22:09:03.740Z,99145.22
2023-03-13T22:13:07.589Z,99131.72
2023-03-13T22:17:16.632Z,99128.47
2023-03-13T22:21:19.374Z,99128.75
2023-03-13T22:25:21.437Z,99131.63
2023-03-13T22:29:24.054Z,99135.06
2023-03-13T22:33:26.205Z,99138.31
2023-03-13T22:37:28.152Z,99135.69
2023-03-13T22:41:30.125Z,99139.63
2023-03-13T22:45:34.009Z,99118.88
2023-03-13T22:49:36.028Z,99119.31
2023-03-13T22:53:40.040Z,99119.25
2023-03-13T22:57:42.021Z,99117.84
2023-03-13T23:01:44.106Z,99109.75
2023-03-13T23:05:47.620Z,99115.00
2023-03-13T23:09:49.647Z,99112.44
2023-03-13T23:13:51.671Z,99099.09
2023-03-13T23:17:53.859Z,99104.47
2023-03-13T23:21:55.793Z,99104.22
2023-03-13T23:26:02.540Z,99102.31
2023-03-13T23:30:06.467Z,99105.19
2023-03-13T23:34:08.444Z,99112.31
2023-03-13T23:38:12.153Z,99098.88
2023-03-13T23:42:14.198Z,99100.09
2023-03-13T23:46:18.495Z,99091.88
2023-03-13T23:50:20.947Z,99100.25
2023-03-13T23:54:23.327Z,99096.78
2023-03-13T23:58:25.434Z,99084.88
